This is the latest recevied weather packets stored in our database for station/object N3NDE. If no packets are shown the sender has not sent any weather packets the latest 1 day(s).
| Time | Temp. | Humidity | Pressure | Rain* | Wind** | Luminosity | Snow |
|---|---|---|---|---|---|---|---|
| 1777984509 | 6.11° C | 80% | 1011.9 hPa | 1.27 mm | 0.45 m/s, 75° | 0 W/m² | - |
| 1777984204 | 5.56° C | 82% | 1011.7 hPa | 1.27 mm | 0.89 m/s, 88° | 0 W/m² | - |
| 1777983902 | 5.56° C | 82% | 1011.7 hPa | 0 mm | 0 m/s | 0 W/m² | - |
| 1777983598 | 5.56° C | 81% | 1011.7 hPa | 0 mm | 1.34 m/s, 128° | 0 W/m² | - |
| 1777983295 | 5.56° C | 82% | 1011.7 hPa | 1.78 mm | 1.79 m/s, 174° | 0 W/m² | - |
| 1777982991 | 5.56° C | 82% | 1011.6 hPa | 1.78 mm | 1.34 m/s, 177° | 0 W/m² | - |
| 1777982688 | 5.56° C | 81% | 1011.6 hPa | 1.78 mm | 1.79 m/s, 147° | 0 W/m² | - |
| 1777982387 | 5.56° C | 80% | 1011.7 hPa | 0 mm | 1.34 m/s, 81° | 0 W/m² | - |
| 1777982083 | 5.56° C | 81% | 1011.8 hPa | 0 mm | 0.89 m/s, 159° | 0 W/m² | - |
| 1777981782 | 5.56° C | 82% | 1011.7 hPa | 1.27 mm | 1.34 m/s, 87° | 0 W/m² | - |
| 1777981477 | 5.56° C | 82% | 1011.7 hPa | 1.27 mm | 0 m/s | 0 W/m² | - |
| 1777981174 | 5.56° C | 81% | 1011.7 hPa | 0 mm | 1.79 m/s, 64° | 0 W/m² | - |
| 1777980870 | 5.56° C | 81% | 1011.5 hPa | 0 mm | 1.34 m/s, 91° | 0 W/m² | - |
| 1777980566 | 6.11° C | 81% | 1011.6 hPa | 0 mm | 1.79 m/s, 110° | 0 W/m² | - |
| 1777980264 | 6.11° C | 80% | 1011.7 hPa | 0 mm | 0.89 m/s, 88° | 0 W/m² | - |
| 1777979960 | 6.67° C | 79% | 1011.7 hPa | 0 mm | 0.45 m/s, 55° | 0 W/m² | - |
| 1777979655 | 6.67° C | 81% | 1011.7 hPa | 1.78 mm | 0 m/s | 0 W/m² | - |
| 1777979352 | 6.67° C | 81% | 1011.6 hPa | 1.78 mm | 0.89 m/s, 76° | 0 W/m² | - |
| 1777979049 | 6.67° C | 80% | 1011.6 hPa | 0 mm | 1.34 m/s, 74° | 0 W/m² | - |
| 1777978745 | 7.22° C | 78% | 1011.7 hPa | 0 mm | 2.24 m/s, 131° | 0 W/m² | - |
| 1777978442 | 7.22° C | 77% | 1011.6 hPa | 0 mm | 0.45 m/s, 64° | 0 W/m² | - |
| 1777978138 | 7.22° C | 76% | 1011.7 hPa | 0 mm | 0 m/s | 0 W/m² | - |
| 1777977835 | 7.78° C | 76% | 1011.6 hPa | 0 mm | 0.45 m/s, 86° | 0 W/m² | - |
| 1777977531 | 7.78° C | 74% | 1011.6 hPa | 0 mm | 0.45 m/s, 43° | 0 W/m² | - |
| 1777977229 | 7.78° C | 74% | 1011.5 hPa | 0 mm | 0.45 m/s, 66° | 0 W/m² | - |
* Rain latest hour (hover to see other rain measurements)
** Current wind speed in m/s (hover to see current wind gust speed)